»·PEaware :: N172SP KLAX-KSNA

N172SP :: KLAX-KSNA

FLIGHT INFORMATION

Flight Status: Arrived
Operator: Privately registered:
United States
More flights under this callsign
Pilot: Michael S. (15761)
Aircraft: CESSNA 172 SKYHAWK
(C172)
More flights by this aircraft type
Origin: KLAX Los Angeles Intl
United States
Destination: KSNA John Wayne-Orange Co
United States
More flights between these airports :: More routes between these airports
Route: SLI8 SLI
File this flight plan on PilotEdge
Remarks:
Altitude:
(Current/Filed)
4,000ft
Speed:
(Current/Filed)
115kts
Departed: 30-Nov-20 05:39 PM
Arrived: 30-Nov-20 06:17 PM
Distance/Time
Traveled:
31nm/0:38
Distance/Time
To Go:
Arrived

Flight Plot

Page will automatically refresh every two minutes.

Flight plan parsing failed; only flown route is shown


Map Options




Map Legend


Flown Route
Filed Route
Departure Airport
Arrival Airport
Navaid (VOR, NDB)
Fix

Horizontal Profiles

Position Reports

Time Latitude Longitude Heading Altitude Ground
Speed
30-Nov-20 17:24 33.933621 -118.399879 174 129ft 0kts
30-Nov-20 17:25 33.933621 -118.399879 174 129ft 0kts
30-Nov-20 17:26 33.933621 -118.399879 174 129ft 0kts
30-Nov-20 17:27 33.933621 -118.399879 174 129ft 0kts
30-Nov-20 17:28 33.933621 -118.399879 174 129ft 0kts
30-Nov-20 17:29 33.933621 -118.399879 174 129ft 0kts
30-Nov-20 17:30 33.933818 -118.399659 15 129ft 13kts
30-Nov-20 17:31 33.934944 -118.394631 83 129ft 17kts
30-Nov-20 17:32 33.935516 -118.388769 83 129ft 17kts
30-Nov-20 17:33 33.936217 -118.383137 53 129ft 0kts
30-Nov-20 17:34 33.936217 -118.383138 53 129ft 0kts
30-Nov-20 17:35 33.936217 -118.383138 53 129ft 0kts
30-Nov-20 17:36 33.936217 -118.383136 60 129ft 0kts
30-Nov-20 17:37 33.936217 -118.383136 60 129ft 0kts
30-Nov-20 17:38 33.936292 -118.394377 263 269ft 88kts
30-Nov-20 17:39 33.933365 -118.425585 263 1083ft 98kts
30-Nov-20 17:40 33.921035 -118.452010 193 1880ft 99kts
30-Nov-20 17:41 33.895061 -118.449882 139 2674ft 95kts
30-Nov-20 17:42 33.883388 -118.425337 177 3459ft 89kts
30-Nov-20 17:43 33.858163 -118.425337 178 4007ft 107kts
30-Nov-20 17:44 33.824219 -118.424241 178 4026ft 130kts
30-Nov-20 17:45 33.789289 -118.417175 124 4018ft 132kts
30-Nov-20 17:46 33.784604 -118.373500 92 4021ft 133kts
30-Nov-20 17:47 33.785705 -118.329119 89 4020ft 133kts
30-Nov-20 17:48 33.786160 -118.284705 89 4020ft 133kts
30-Nov-20 17:49 33.786627 -118.240223 89 4020ft 133kts
30-Nov-20 17:50 33.787118 -118.195666 89 4020ft 133kts
30-Nov-20 17:51 33.787643 -118.151102 89 4020ft 133kts
30-Nov-20 17:52 33.786512 -118.106611 92 4020ft 133kts
30-Nov-20 17:53 33.785381 -118.062296 83 4017ft 133kts
30-Nov-20 17:54 33.800869 -118.022037 64 4017ft 133kts
30-Nov-20 17:55 33.816805 -117.981782 64 4017ft 133kts
30-Nov-20 17:56 33.832594 -117.941406 64 4017ft 133kts
30-Nov-20 17:57 33.848094 -117.901019 65 4017ft 133kts
30-Nov-20 17:58 33.863299 -117.860457 65 4017ft 133kts
30-Nov-20 17:59 33.878343 -117.820387 65 4009ft 121kts
30-Nov-20 18:00 33.891901 -117.784408 65 4012ft 126kts
30-Nov-20 18:01 33.904629 -117.750657 65 3986ft 96kts
30-Nov-20 18:02 33.915018 -117.723501 64 3970ft 82kts
30-Nov-20 18:03 33.928840 -117.705115 25 3959ft 75kts
30-Nov-20 18:05 33.949044 -117.710448 278 3601ft 119kts
30-Nov-20 18:06 33.929817 -117.725486 130 3487ft 109kts
30-Nov-20 18:07 33.905603 -117.714378 213 3409ft 109kts
30-Nov-20 18:08 33.881139 -117.735054 212 3406ft 106kts
30-Nov-20 18:09 33.857013 -117.752956 209 3391ft 91kts
30-Nov-20 18:10 33.834922 -117.767253 208 3058ft 102kts
30-Nov-20 18:11 33.810514 -117.783082 208 2723ft 94kts
30-Nov-20 18:12 33.786441 -117.798411 207 2211ft 101kts
30-Nov-20 18:13 33.762927 -117.813212 208 1834ft 93kts
30-Nov-20 18:14 33.739749 -117.828243 208 1354ft 97kts
30-Nov-20 18:15 33.715708 -117.843667 207 855ft 99kts
30-Nov-20 18:16 33.691619 -117.858516 207 334ft 93kts
30-Nov-20 18:17 33.674962 -117.869371 207 60ft 18kts

Navigation Log

Ident Type
Flight plan parsing failed, navigation log unavailable